La Plata, MO (63549)

5:16 AM CDT on October 25, 2014 (GMT -0500)
La Plata | Change Station
CLOSE
Current Station
Personal Weather Station
Location: La Plata, MO
Elevation: 928 ft
Nearby Weather Stations
Active Advisory: Dense Fog Advisory

Elev 928 ft 40.03 °N, 92.48 °W | Updated 3 seconds ago

Fog
Fog
55.4 °F
Feels Like 55.4 °F
N
0.0
Wind Variable Wind from North
Gusts 0.0 mph

Today
High -- | Low -- °F
--% Chance of Precip.
Yesterday
High -- | Low -- °F
Precip. -- in
7:31 AM 6:16 PM
New Moon, 2% visible
Pressure 30.01 in
Visibility 0.2 miles
Clouds
Dew Point 55 °F
Humidity 99%
Rainfall 0.00 in
Snow Depth Not available.
UV Not available.
Pollen 2.00 out of 12
Air Quality Not available.
Flu Activity No Activity
METAR KIRK 250955Z AUTO 26003KT M1/4SM FG VV001 12/12 A3000 RMK AO2 SLP160 T01170117

More Conditions Fewer Conditions

Pressure 30.01 in
Visibility 0.2 miles
Clouds
Dew Point 55 °F
Humidity 99%
Rainfall 0.00 in
Snow Depth Not available.
UV Not available.
Pollen 2.00 out of 12
Air Quality Not available.
Flu Activity No Activity
METAR KIRK 250955Z AUTO 26003KT M1/4SM FG VV001 12/12 A3000 RMK AO2 SLP160 T01170117

More Conditions Fewer Conditions

10-Day Weather Forecast

Almanac

Astronomy

Oct. 25, 2014 Rise Set
Actual Time 7:31 AM CDT 6:16 PM CDT
Civil Twilight 7:03 AM CDT 6:43 PM CDT
Nautical Twilight 6:31 AM CDT 7:15 PM CDT
Astronomical Twilight 6:00 AM CDT 7:46 PM CDT
Moon 9:10 AM CDT 7:39 PM CDT
Length of Visible Light 11h 40m
Length of Day
10h 44m
Tomorrow will be 2m 25s shorter.
New Moon, 2% of the Moon is Illuminated
Today
New Moon
Oct 30
First Quarter
Nov 6
Full
Nov 14
Last Quarter
Nov 22
New

Today's Extremes

State Highs State Lows

Community

WunderPhotos

Upload Photos

1,764,796 photos uploaded!

Nearby

Snow Depth

Station Depth Elevation
No new snow has been reported.

Earthquake Activity

City Distance Mag. Time & Date
No recent earthquake activity has been reported nearby.
Minimum magnitude displayed is 2.5.

Coastal Water Temperatures

Place Temperature
No Stations Reporting

Nearby Weather Stations